Time;durP1;ratioP1;P1;durP2;ratioP2;P2;SDS_P1;SDS_P2;PMS_P1;PMS_P2;Temp;Humidity;BMP_temperature;BMP_pressure;BME280_temperature;BME280_humidity;BME280_pressure;Samples;Min_cycle;Max_cycle;Signal;HPM_P1;HPM_P2
2022/07/12 00:02:20;;;;;;;;;;;15.20;99.90;;;;;;5032186;28;20427;-71
2022/07/12 00:04:47;;;;;;;;;;;15.10;99.90;;;;;;5032720;28;19925;-68
2022/07/12 00:07:14;;;;;;;;;;;15.10;99.90;;;;;;5015702;28;19949;-68
2022/07/12 00:09:42;;;;;;;;;;;15.00;99.90;;;;;;5032387;28;19929;-68
2022/07/12 00:12:10;;;;;;;;;;;15.00;99.90;;;;;;5032249;28;20024;-70
2022/07/12 00:14:37;;;;;;;;;;;14.90;99.90;;;;;;5032679;28;20340;-68
2022/07/12 00:17:04;;;;;;;;;;;14.90;99.90;;;;;;5032025;28;19925;-69
2022/07/12 00:19:32;;;;;;;;;;;14.90;99.90;;;;;;5032488;28;19925;-68
2022/07/12 00:21:59;;;;;;;;;;;14.80;99.90;;;;;;5032046;28;20023;-70
2022/07/12 00:24:26;;;;;;;;;;;14.80;99.90;;;;;;5032252;28;19933;-70
2022/07/12 00:26:54;;;;;;;;;;;14.80;99.90;;;;;;5032125;28;19929;-68
2022/07/12 00:29:21;;;;;;;;;;;14.80;99.90;;;;;;5032165;28;19932;-68
2022/07/12 00:31:48;;;;;;;;;;;14.70;99.90;;;;;;5032496;28;19925;-66
2022/07/12 00:34:15;;;;;;;;;;;14.70;99.90;;;;;;5032092;28;19936;-66
2022/07/12 00:36:42;;;;;;;;;;;14.70;99.90;;;;;;5031816;28;19925;-66
2022/07/12 00:39:09;;;;;;;;;;;14.60;99.90;;;;;;5032046;28;20339;-66
2022/07/12 00:41:35;;;;;;;;;;;14.60;99.90;;;;;;5031873;28;19929;-66
2022/07/12 00:44:04;;;;;;;;;;;14.60;99.90;;;;;;5032072;28;19925;-66
2022/07/12 00:46:32;;;;;;;;;;;14.60;99.90;;;;;;5031960;28;19961;-66
2022/07/12 00:48:58;;;;;;;;;;;14.50;99.90;;;;;;5031575;28;19925;-66
2022/07/12 00:51:26;;;;;;;;;;;14.50;99.90;;;;;;5031756;28;20347;-67
2022/07/12 00:53:53;;;;;;;;;;;14.50;99.90;;;;;;5015143;28;20355;-66
2022/07/12 00:56:21;;;;;;;;;;;14.50;99.90;;;;;;5031358;28;19929;-66
2022/07/12 00:58:48;;;;;;;;;;;14.40;99.90;;;;;;5015083;28;19933;-65
2022/07/12 01:01:16;;;;;;;;;;;14.30;99.90;;;;;;5014858;28;20404;-66
2022/07/12 01:03:43;;;;;;;;;;;14.30;99.90;;;;;;5014977;28;19983;-66
2022/07/12 01:06:11;;;;;;;;;;;14.30;99.90;;;;;;5014729;28;19929;-66
2022/07/12 01:08:38;;;;;;;;;;;14.20;99.90;;;;;;5014919;28;19925;-66
2022/07/12 01:11:05;;;;;;;;;;;14.20;99.90;;;;;;5031468;28;19925;-66
2022/07/12 01:13:31;;;;;;;;;;;14.20;99.90;;;;;;5031467;28;19964;-66
2022/07/12 01:15:58;;;;;;;;;;;14.20;99.90;;;;;;5031278;28;19932;-67
2022/07/12 01:18:27;;;;;;;;;;;14.10;99.90;;;;;;5031395;28;19936;-66
2022/07/12 01:20:54;;;;;;;;;;;14.10;99.90;;;;;;5014681;28;19949;-68
2022/07/12 01:23:23;;;;;;;;;;;14.10;99.90;;;;;;5014613;28;20388;-66
2022/07/12 01:25:50;;;;;;;;;;;14.20;99.90;;;;;;5014753;28;19945;-66
2022/07/12 01:28:17;;;;;;;;;;;14.10;99.90;;;;;;5031198;28;20347;-66
2022/07/12 01:30:44;;;;;;;;;;;14.00;99.90;;;;;;5030983;28;19929;-66
2022/07/12 01:33:10;;;;;;;;;;;13.90;99.90;;;;;;5014682;28;19968;-66
2022/07/12 01:35:37;;;;;;;;;;;13.90;99.90;;;;;;5031292;28;19965;-66
2022/07/12 01:38:04;;;;;;;;;;;13.90;99.90;;;;;;5031167;28;19932;-66
2022/07/12 01:40:32;;;;;;;;;;;13.90;99.90;;;;;;5030733;28;19929;-66
2022/07/12 01:42:59;;;;;;;;;;;13.90;99.90;;;;;;5014684;28;19929;-66
2022/07/12 01:45:26;;;;;;;;;;;13.90;99.90;;;;;;5030758;28;20336;-67
2022/07/12 01:47:53;;;;;;;;;;;13.90;99.90;;;;;;5030660;28;19932;-66
2022/07/12 01:50:20;;;;;;;;;;;13.90;99.90;;;;;;5014408;28;20390;-65
2022/07/12 01:52:47;;;;;;;;;;;13.80;99.90;;;;;;5030767;28;19925;-66
2022/07/12 01:55:14;;;;;;;;;;;13.80;99.90;;;;;;5014668;28;19933;-66
2022/07/12 01:57:44;;;;;;;;;;;13.70;99.90;;;;;;5031042;28;19929;-66
2022/07/12 02:00:12;;;;;;;;;;;13.70;99.90;;;;;;5030510;28;20377;-66
2022/07/12 02:02:38;;;;;;;;;;;13.70;99.90;;;;;;5055415;23;19948;-66
2022/07/12 02:05:05;;;;;;;;;;;13.70;99.90;;;;;;5033845;28;19925;-65
2022/07/12 02:07:32;;;;;;;;;;;13.70;99.90;;;;;;5049470;28;19924;-66
2022/07/12 02:09:59;;;;;;;;;;;13.70;99.90;;;;;;5050326;28;19925;-66
2022/07/12 02:12:26;;;;;;;;;;;13.70;99.90;;;;;;5051932;28;20052;-66
2022/07/12 02:14:56;;;;;;;;;;;13.60;99.90;;;;;;5014542;28;19972;-67
2022/07/12 02:17:23;;;;;;;;;;;13.60;99.90;;;;;;5033167;28;20442;-66
2022/07/12 02:19:50;;;;;;;;;;;13.70;99.90;;;;;;5034466;28;20019;-66
2022/07/12 02:22:16;;;;;;;;;;;13.70;99.90;;;;;;5034515;28;20019;-66
2022/07/12 02:24:43;;;;;;;;;;;13.70;99.90;;;;;;5017823;28;19935;-66
2022/07/12 02:27:09;;;;;;;;;;;13.60;99.90;;;;;;5034765;28;20008;-66
2022/07/12 02:29:36;;;;;;;;;;;13.60;99.90;;;;;;5034432;28;20015;-66
2022/07/12 02:32:04;;;;;;;;;;;13.60;99.90;;;;;;5017806;28;20277;-66
2022/07/12 02:34:31;;;;;;;;;;;13.60;99.90;;;;;;5035919;28;20023;-66
2022/07/12 02:36:58;;;;;;;;;;;13.60;99.90;;;;;;5017764;28;19925;-66
2022/07/12 02:39:24;;;;;;;;;;;13.50;99.90;;;;;;5035035;28;19925;-66
2022/07/12 02:41:51;;;;;;;;;;;13.50;99.90;;;;;;5034349;28;19925;-66
2022/07/12 02:44:17;;;;;;;;;;;13.50;99.90;;;;;;5017817;28;19932;-66
2022/07/12 02:46:44;;;;;;;;;;;13.50;99.90;;;;;;5033976;28;20387;-66
2022/07/12 02:49:12;;;;;;;;;;;13.50;99.90;;;;;;5033778;28;19925;-66
2022/07/12 02:51:38;;;;;;;;;;;13.50;99.90;;;;;;5017547;28;20471;-66
2022/07/12 02:54:05;;;;;;;;;;;13.50;99.90;;;;;;5017592;28;19929;-66
2022/07/12 02:56:32;;;;;;;;;;;13.50;99.90;;;;;;5035221;28;20028;-66
2022/07/12 02:58:58;;;;;;;;;;;13.40;99.90;;;;;;5017148;28;20016;-66
2022/07/12 03:01:25;;;;;;;;;;;13.40;99.90;;;;;;5033728;28;20024;-66
2022/07/12 03:03:51;;;;;;;;;;;13.40;99.90;;;;;;5034954;28;20375;-66
2022/07/12 03:06:19;;;;;;;;;;;13.30;99.90;;;;;;5033377;28;19967;-65
2022/07/12 03:08:46;;;;;;;;;;;13.30;99.90;;;;;;5033893;28;20020;-66
2022/07/12 03:11:13;;;;;;;;;;;13.30;99.90;;;;;;5017035;28;20016;-66
2022/07/12 03:13:39;;;;;;;;;;;13.20;99.90;;;;;;5033473;28;20023;-66
2022/07/12 03:16:07;;;;;;;;;;;13.20;99.90;;;;;;5017038;28;19976;-66
2022/07/12 03:18:33;;;;;;;;;;;13.20;99.90;;;;;;5034742;28;19925;-65
2022/07/12 03:21:00;;;;;;;;;;;13.20;99.90;;;;;;5017043;28;19979;-66
2022/07/12 03:23:28;;;;;;;;;;;13.20;99.90;;;;;;5033582;28;19925;-66
2022/07/12 03:25:55;;;;;;;;;;;13.10;99.90;;;;;;5033508;28;19971;-66
2022/07/12 03:28:21;;;;;;;;;;;13.10;99.90;;;;;;5016476;28;19929;-66
2022/07/12 03:30:48;;;;;;;;;;;13.00;99.90;;;;;;5016502;28;19929;-67
2022/07/12 03:33:15;;;;;;;;;;;13.00;99.90;;;;;;5016521;28;19925;-66
2022/07/12 03:35:41;;;;;;;;;;;13.00;99.90;;;;;;5016679;28;19933;-66
2022/07/12 03:38:08;;;;;;;;;;;13.00;99.90;;;;;;5016746;28;20388;-66
2022/07/12 03:40:36;;;;;;;;;;;13.00;99.90;;;;;;5016559;28;19929;-66
2022/07/12 03:43:03;;;;;;;;;;;13.00;99.90;;;;;;5032902;28;20308;-65
2022/07/12 03:45:30;;;;;;;;;;;13.00;99.90;;;;;;5016259;28;19926;-66
2022/07/12 03:47:57;;;;;;;;;;;13.00;99.90;;;;;;5033264;28;19925;-66
2022/07/12 03:50:24;;;;;;;;;;;13.10;99.90;;;;;;5016132;28;19925;-66
2022/07/12 03:52:50;;;;;;;;;;;13.10;99.90;;;;;;5016411;28;19925;-66
2022/07/12 03:55:17;;;;;;;;;;;13.10;99.90;;;;;;5033159;28;20340;-65
2022/07/12 03:57:45;;;;;;;;;;;13.10;99.90;;;;;;5016343;28;19983;-67
2022/07/12 04:00:13;;;;;;;;;;;13.10;99.90;;;;;;5032493;28;19929;-66
2022/07/12 04:02:40;;;;;;;;;;;13.10;99.90;;;;;;5032605;28;19975;-66
2022/07/12 04:05:09;;;;;;;;;;;13.10;99.90;;;;;;5015684;28;20207;-65
2022/07/12 04:07:36;;;;;;;;;;;13.10;99.90;;;;;;5032587;28;20292;-66
2022/07/12 04:10:03;;;;;;;;;;;13.10;99.90;;;;;;5015915;28;19925;-66
2022/07/12 04:12:30;;;;;;;;;;;13.10;99.90;;;;;;5032395;28;19925;-65
2022/07/12 04:14:58;;;;;;;;;;;13.10;99.90;;;;;;5016167;28;19957;-65
2022/07/12 04:17:25;;;;;;;;;;;13.10;99.90;;;;;;5032271;28;19925;-66
2022/07/12 04:19:52;;;;;;;;;;;13.10;99.90;;;;;;5015799;28;20345;-65
2022/07/12 04:22:18;;;;;;;;;;;13.20;99.90;;;;;;5015830;28;20000;-66
2022/07/12 04:24:45;;;;;;;;;;;13.20;99.90;;;;;;5015491;28;19925;-66
2022/07/12 04:27:12;;;;;;;;;;;13.20;99.90;;;;;;5015921;28;20294;-66
2022/07/12 04:29:39;;;;;;;;;;;13.30;99.90;;;;;;5015400;28;20308;-66
2022/07/12 04:32:07;;;;;;;;;;;13.40;99.90;;;;;;5015859;28;19928;-66
2022/07/12 04:34:34;;;;;;;;;;;13.40;99.90;;;;;;5033191;28;19971;-66
2022/07/12 04:37:01;;;;;;;;;;;13.40;99.90;;;;;;5015860;28;20016;-66
2022/07/12 04:39:27;;;;;;;;;;;13.50;99.90;;;;;;5030970;28;19925;-66
2022/07/12 04:41:54;;;;;;;;;;;13.60;99.90;;;;;;5015596;28;19929;-66
2022/07/12 04:44:21;;;;;;;;;;;13.70;99.90;;;;;;5015456;28;19925;-66
2022/07/12 04:46:48;;;;;;;;;;;13.70;99.90;;;;;;5031789;28;20063;-66
2022/07/12 04:49:16;;;;;;;;;;;13.60;99.90;;;;;;5015162;28;20004;-66
2022/07/12 04:51:43;;;;;;;;;;;13.60;99.90;;;;;;5015599;28;19979;-66
2022/07/12 04:54:10;;;;;;;;;;;13.60;99.90;;;;;;5015434;28;20044;-65
2022/07/12 04:56:36;;;;;;;;;;;13.70;99.90;;;;;;5015393;28;19925;-66
2022/07/12 04:59:04;;;;;;;;;;;13.70;99.90;;;;;;5015125;28;19932;-65
2022/07/12 05:01:32;;;;;;;;;;;13.70;99.90;;;;;;5028671;28;20483;-66
2022/07/12 05:03:59;;;;;;;;;;;13.70;99.90;;;;;;5012991;28;20285;-65
2022/07/12 05:06:27;;;;;;;;;;;13.70;99.90;;;;;;5015047;28;20428;-66
2022/07/12 05:08:55;;;;;;;;;;;13.80;99.90;;;;;;5031273;28;19971;-66
2022/07/12 05:11:21;;;;;;;;;;;13.90;99.90;;;;;;5006395;28;19925;-66
2022/07/12 05:13:48;;;;;;;;;;;14.00;99.90;;;;;;4995095;28;19925;-66
2022/07/12 05:16:15;;;;;;;;;;;14.10;99.90;;;;;;5011674;28;19961;-65
2022/07/12 05:18:42;;;;;;;;;;;14.20;99.90;;;;;;4995112;28;19926;-67
2022/07/12 05:21:08;;;;;;;;;;;14.20;99.90;;;;;;5030562;28;20454;-66
2022/07/12 05:23:37;;;;;;;;;;;14.30;99.90;;;;;;5014628;28;19929;-66
2022/07/12 05:26:03;;;;;;;;;;;14.40;99.90;;;;;;5014724;28;19975;-66
2022/07/12 05:28:30;;;;;;;;;;;14.50;99.90;;;;;;5014884;28;19983;-66
2022/07/12 05:30:57;;;;;;;;;;;14.60;99.90;;;;;;5014701;28;19925;-66
2022/07/12 05:33:24;;;;;;;;;;;14.60;99.90;;;;;;5014391;28;19925;-66
2022/07/12 05:35:51;;;;;;;;;;;14.70;99.90;;;;;;5014651;28;19987;-66
2022/07/12 05:38:18;;;;;;;;;;;14.80;99.90;;;;;;4995328;28;20393;-66
2022/07/12 05:40:46;;;;;;;;;;;14.90;99.90;;;;;;4994717;28;20352;-66
2022/07/12 05:43:12;;;;;;;;;;;14.90;99.90;;;;;;4994633;28;19925;-66
2022/07/12 05:45:41;;;;;;;;;;;15.10;99.90;;;;;;4994814;28;19975;-67
2022/07/12 05:48:08;;;;;;;;;;;15.20;99.90;;;;;;5011188;28;20373;-66
2022/07/12 05:50:35;;;;;;;;;;;15.30;99.90;;;;;;4995748;28;20459;-66
2022/07/12 05:55:47;;;;;;;;;;;15.70;99.90;;;;;;4999136;28;19925;-67
2022/07/12 05:58:14;;;;;;;;;;;15.90;99.90;;;;;;4999013;28;19929;-66
2022/07/12 06:00:41;;;;;;;;;;;15.90;99.90;;;;;;4998868;28;19925;-66
2022/07/12 06:03:07;;;;;;;;;;;16.10;99.90;;;;;;5014920;28;19964;-66
2022/07/12 06:05:34;;;;;;;;;;;16.30;99.90;;;;;;4999166;28;19984;-66
2022/07/12 06:08:01;;;;;;;;;;;16.40;99.90;;;;;;4998244;28;20393;-66
2022/07/12 06:10:27;;;;;;;;;;;16.40;99.90;;;;;;5002069;28;20011;-65
2022/07/12 06:12:56;;;;;;;;;;;16.50;99.90;;;;;;5018139;28;20352;-65
2022/07/12 06:15:24;;;;;;;;;;;16.70;99.90;;;;;;5018485;28;20389;-66
2022/07/12 06:17:51;;;;;;;;;;;16.90;99.90;;;;;;5018095;28;20316;-66
2022/07/12 06:20:17;;;;;;;;;;;17.00;99.90;;;;;;5018059;28;20353;-66
2022/07/12 06:22:44;;;;;;;;;;;17.10;99.90;;;;;;5017699;28;19929;-66
2022/07/12 06:25:11;;;;;;;;;;;17.30;99.90;;;;;;5018026;28;19925;-67
2022/07/12 06:27:39;;;;;;;;;;;17.50;99.90;;;;;;5017857;28;20396;-66
2022/07/12 06:30:08;;;;;;;;;;;17.70;99.90;;;;;;5017803;28;19932;-65
2022/07/12 06:32:34;;;;;;;;;;;17.80;99.90;;;;;;5017892;28;19968;-66
2022/07/12 06:35:01;;;;;;;;;;;18.10;99.90;;;;;;5017745;28;20336;-66
2022/07/12 06:37:28;;;;;;;;;;;18.30;99.90;;;;;;5017768;28;20316;-67
2022/07/12 06:39:55;;;;;;;;;;;18.50;99.90;;;;;;5017610;28;19944;-66
2022/07/12 06:42:22;;;;;;;;;;;18.70;99.90;;;;;;5017820;28;19925;-65
2022/07/12 06:44:54;;;;;;;;;;;18.90;99.90;;;;;;5017691;28;19956;-66
2022/07/12 06:47:22;;;;;;;;;;;19.00;99.90;;;;;;5017684;28;19929;-67
2022/07/12 06:49:49;;;;;;;;;;;19.10;99.90;;;;;;5017038;28;20385;-66
2022/07/12 06:52:16;;;;;;;;;;;19.20;99.90;;;;;;5017668;28;19979;-67
2022/07/12 06:54:43;;;;;;;;;;;19.30;99.90;;;;;;5017530;28;19987;-66
2022/07/12 06:57:09;;;;;;;;;;;19.50;99.90;;;;;;5017192;28;20336;-67
2022/07/12 06:59:36;;;;;;;;;;;19.60;99.90;;;;;;5017346;28;19925;-66
2022/07/12 07:02:04;;;;;;;;;;;19.80;99.90;;;;;;5016621;28;19933;-66
2022/07/12 07:04:32;;;;;;;;;;;20.00;99.90;;;;;;5017078;28;20408;-66
2022/07/12 07:06:58;;;;;;;;;;;20.00;99.90;;;;;;5033757;28;19971;-66
2022/07/12 07:09:25;;;;;;;;;;;20.00;99.90;;;;;;5017222;28;19979;-66
2022/07/12 07:11:53;;;;;;;;;;;20.00;99.90;;;;;;5002056;28;20406;-66
2022/07/12 07:14:19;;;;;;;;;;;20.20;99.90;;;;;;4997356;28;19925;-66
2022/07/12 07:16:46;;;;;;;;;;;20.20;99.90;;;;;;4997693;28;19968;-66
2022/07/12 07:19:13;;;;;;;;;;;20.40;99.90;;;;;;4997330;28;19957;-66
2022/07/12 07:21:41;;;;;;;;;;;20.50;99.90;;;;;;4997401;28;19929;-66
2022/07/12 07:24:09;;;;;;;;;;;20.70;99.90;;;;;;4997113;28;19969;-65
2022/07/12 07:26:36;;;;;;;;;;;20.90;99.90;;;;;;4997409;28;19932;-66
2022/07/12 07:31:47;;;;;;;;;;;21.00;99.90;;;;;;4997203;28;19922;-66
2022/07/12 07:34:14;;;;;;;;;;;21.00;99.90;;;;;;4996980;28;19925;-66
2022/07/12 07:36:42;;;;;;;;;;;21.00;99.90;;;;;;5013475;28;19967;-66
2022/07/12 07:39:09;;;;;;;;;;;21.10;99.90;;;;;;4996701;28;19972;-66
2022/07/12 07:41:36;;;;;;;;;;;21.10;99.90;;;;;;4996773;28;19940;-65
2022/07/12 07:44:03;;;;;;;;;;;21.20;99.90;;;;;;4996903;28;19929;-66
2022/07/12 07:46:30;;;;;;;;;;;21.30;99.90;;;;;;4996980;28;19975;-66
2022/07/12 07:48:56;;;;;;;;;;;21.40;99.90;;;;;;4996568;28;19932;-66
2022/07/12 07:51:23;;;;;;;;;;;21.50;99.90;;;;;;4996780;28;19929;-66
2022/07/12 07:53:51;;;;;;;;;;;21.50;99.90;;;;;;4996491;28;19961;-64
2022/07/12 07:56:18;;;;;;;;;;;21.50;99.90;;;;;;4996872;28;19930;-66
2022/07/12 07:58:45;;;;;;;;;;;21.50;99.90;;;;;;4996838;28;19972;-66
2022/07/12 08:01:11;;;;;;;;;;;21.50;99.90;;;;;;5013057;28;19980;-66
2022/07/12 08:03:39;;;;;;;;;;;21.50;99.90;;;;;;4997443;28;20052;-66
2022/07/12 08:06:06;;;;;;;;;;;21.60;99.90;;;;;;4996469;28;19936;-67
2022/07/12 08:08:32;;;;;;;;;;;21.60;99.90;;;;;;5013014;28;19931;-66
2022/07/12 08:11:01;;;;;;;;;;;21.60;99.90;;;;;;5004028;28;19925;-67
2022/07/12 08:13:27;;;;;;;;;;;21.60;99.90;;;;;;5015483;28;19947;-67
2022/07/12 08:15:54;;;;;;;;;;;21.70;99.90;;;;;;5031917;28;19944;-66
2022/07/12 08:18:21;;;;;;;;;;;21.80;99.90;;;;;;5015870;28;19929;-66
2022/07/12 08:20:48;;;;;;;;;;;21.80;99.90;;;;;;5015690;28;19929;-66
2022/07/12 08:23:14;;;;;;;;;;;21.90;99.90;;;;;;5016176;28;19925;-67
2022/07/12 08:25:41;;;;;;;;;;;22.10;99.90;;;;;;5032515;28;20400;-67
2022/07/12 08:28:09;;;;;;;;;;;22.10;99.90;;;;;;5015733;28;19931;-66
2022/07/12 08:30:36;;;;;;;;;;;22.20;99.90;;;;;;5015816;28;19929;-66
2022/07/12 08:33:03;;;;;;;;;;;22.20;99.90;;;;;;5015705;28;20343;-66
2022/07/12 08:35:30;;;;;;;;;;;22.30;99.90;;;;;;5015894;28;19929;-66
2022/07/12 08:37:56;;;;;;;;;;;22.20;99.90;;;;;;5015565;28;19929;-65
2022/07/12 08:40:23;;;;;;;;;;;22.30;99.90;;;;;;5031933;28;19925;-66
2022/07/12 08:42:50;;;;;;;;;;;22.30;99.90;;;;;;5015615;28;19964;-67
2022/07/12 08:45:18;;;;;;;;;;;22.40;99.90;;;;;;5031790;28;20312;-66
2022/07/12 08:47:45;;;;;;;;;;;22.70;99.90;;;;;;5015307;28;20020;-66
2022/07/12 08:50:16;;;;;;;;;;;22.90;99.90;;;;;;5015095;28;20436;-66
2022/07/12 08:52:44;;;;;;;;;;;23.10;99.90;;;;;;5015256;28;19925;-66
2022/07/12 08:55:22;;;;;;;;;;;23.10;99.90;;;;;;5015150;28;20392;-66
2022/07/12 08:57:49;;;;;;;;;;;23.20;99.90;;;;;;5015286;28;19929;-67
2022/07/12 09:00:18;;;;;;;;;;;23.30;99.90;;;;;;5014870;28;19986;-66
2022/07/12 09:02:46;;;;;;;;;;;23.40;99.90;;;;;;5014993;28;20316;-66
2022/07/12 09:05:13;;;;;;;;;;;23.50;99.90;;;;;;5015001;28;20024;-66
2022/07/12 09:07:40;;;;;;;;;;;23.60;99.90;;;;;;5014908;28;20004;-67
2022/07/12 09:10:07;;;;;;;;;;;23.70;99.90;;;;;;5013886;28;19972;-67
2022/07/12 09:12:34;;;;;;;;;;;23.80;99.90;;;;;;4995247;28;19925;-67
2022/07/12 09:15:11;;;;;;;;;;;23.90;99.90;;;;;;4995615;28;19925;-66
2022/07/12 09:17:39;;;;;;;;;;;24.10;99.90;;;;;;4995457;28;19941;-66
2022/07/12 09:20:09;;;;;;;;;;;24.30;99.90;;;;;;4994930;28;19961;-67
2022/07/12 09:22:36;;;;;;;;;;;24.50;99.90;;;;;;4994957;28;20397;-66
2022/07/12 09:25:09;;;;;;;;;;;24.60;99.90;;;;;;4994920;28;20393;-66
2022/07/12 09:27:36;;;;;;;;;;;24.70;99.90;;;;;;4995584;28;19926;-66
2022/07/12 09:30:04;;;;;;;;;;;24.60;99.90;;;;;;4994694;28;20282;-66
2022/07/12 09:38:09;;;;;;;;;;;25.00;99.90;;;;;;4995148;28;19925;-66
2022/07/12 09:40:36;;;;;;;;;;;25.10;99.90;;;;;;4994878;28;19926;-65
2022/07/12 09:43:05;;;;;;;;;;;25.10;99.90;;;;;;4995093;28;20389;-67
2022/07/12 09:45:32;;;;;;;;;;;25.00;99.90;;;;;;4994960;28;19925;-67
2022/07/12 09:48:00;;;;;;;;;;;25.00;99.90;;;;;;5011269;28;19968;-67
2022/07/12 09:50:29;;;;;;;;;;;25.10;99.90;;;;;;4994740;28;19926;-66
2022/07/12 09:52:58;;;;;;;;;;;25.00;99.90;;;;;;4994995;28;19925;-67
2022/07/12 09:55:25;;;;;;;;;;;25.00;99.90;;;;;;4994942;28;20377;-66
2022/07/12 09:57:56;;;;;;;;;;;25.00;99.90;;;;;;4995057;28;20052;-67
2022/07/12 10:00:23;;;;;;;;;;;25.10;99.90;;;;;;4994612;28;20337;-66
2022/07/12 10:02:51;;;;;;;;;;;25.10;99.90;;;;;;4994517;28;19926;-66
2022/07/12 10:05:18;;;;;;;;;;;25.00;99.90;;;;;;4994886;28;19980;-66
2022/07/12 10:07:46;;;;;;;;;;;25.20;99.90;;;;;;4994535;28;19925;-67
2022/07/12 10:10:13;;;;;;;;;;;25.40;99.90;;;;;;4995706;28;19971;-66
2022/07/12 10:12:41;;;;;;;;;;;25.30;99.90;;;;;;5014172;28;19925;-67
2022/07/12 10:15:10;;;;;;;;;;;25.30;99.90;;;;;;5014135;28;19929;-66
2022/07/12 10:17:37;;;;;;;;;;;25.20;99.90;;;;;;5014214;28;19932;-66
2022/07/12 10:20:17;;;;;;;;;;;25.00;99.90;;;;;;5014127;28;20512;-66
2022/07/12 10:22:44;;;;;;;;;;;25.10;99.90;;;;;;5013849;28;20304;-66
2022/07/12 10:25:32;;;;;;;;;;;25.40;99.90;;;;;;5014148;28;19978;-67
2022/07/12 10:27:59;;;;;;;;;;;25.40;99.90;;;;;;5014045;28;19925;-66
2022/07/12 10:30:26;;;;;;;;;;;25.40;99.90;;;;;;5013826;28;19932;-66
2022/07/12 10:32:56;;;;;;;;;;;25.40;99.90;;;;;;5014178;28;19983;-67
2022/07/12 10:35:24;;;;;;;;;;;25.50;99.90;;;;;;5030507;28;19926;-67
2022/07/12 10:38:09;;;;;;;;;;;25.60;99.90;;;;;;5015521;28;19925;-66
2022/07/12 10:40:38;;;;;;;;;;;25.60;99.90;;;;;;5034113;28;19960;-67
2022/07/12 10:43:15;;;;;;;;;;;25.70;99.90;;;;;;5018280;28;20396;-67
2022/07/12 10:45:42;;;;;;;;;;;25.70;99.90;;;;;;5017650;28;19929;-67
2022/07/12 10:48:10;;;;;;;;;;;25.70;99.90;;;;;;5017530;28;19925;-67
2022/07/12 10:50:59;;;;;;;;;;;25.90;99.90;;;;;;5033841;28;19925;-67
2022/07/12 10:53:27;;;;;;;;;;;26.10;99.90;;;;;;5017547;28;20019;-67
2022/07/12 10:56:15;;;;;;;;;;;26.10;99.90;;;;;;5017582;28;19932;-66
2022/07/12 10:58:44;;;;;;;;;;;26.20;99.90;;;;;;5017276;28;19932;-67
2022/07/12 11:01:12;;;;;;;;;;;26.30;99.90;;;;;;5017399;28;19925;-67
2022/07/12 11:03:39;;;;;;;;;;;26.50;99.90;;;;;;5017103;28;19936;-67
2022/07/12 11:06:06;;;;;;;;;;;26.70;99.90;;;;;;5016795;28;20347;-66
2022/07/12 11:08:46;;;;;;;;;;;26.60;99.90;;;;;;5033811;28;20388;-67
2022/07/12 11:11:15;;;;;;;;;;;26.80;99.90;;;;;;5007858;28;19932;-67
2022/07/12 11:13:41;;;;;;;;;;;26.90;99.90;;;;;;5013755;28;20396;-67
2022/07/12 11:16:08;;;;;;;;;;;27.10;99.90;;;;;;4997513;28;19957;-67
2022/07/12 11:18:35;;;;;;;;;;;27.30;99.90;;;;;;5013571;28;19980;-67
2022/07/12 11:21:03;;;;;;;;;;;27.30;99.90;;;;;;4997581;28;19925;-67
2022/07/12 11:23:30;;;;;;;;;;;27.40;99.90;;;;;;4997565;28;19988;-67
2022/07/12 11:25:57;;;;;;;;;;;27.70;99.90;;;;;;4997710;28;19930;-67
2022/07/12 11:28:26;;;;;;;;;;;27.80;99.90;;;;;;4997328;28;20016;-67
2022/07/12 11:30:53;;;;;;;;;;;27.90;99.90;;;;;;4996964;28;20065;-67
2022/07/12 11:33:25;;;;;;;;;;;28.00;99.90;;;;;;4997141;28;20350;-67
2022/07/12 11:35:53;;;;;;;;;;;28.00;99.90;;;;;;4997307;28;19926;-67
2022/07/12 11:38:24;;;;;;;;;;;28.30;99.90;;;;;;5013248;28;20378;-67
2022/07/12 11:40:55;;;;;;;;;;;28.70;99.90;;;;;;4997008;28;20340;-67
2022/07/12 11:43:22;;;;;;;;;;;29.30;99.90;;;;;;4996756;28;20400;-68
2022/07/12 11:45:50;;;;;;;;;;;30.20;99.90;;;;;;5013033;28;19936;-65
2022/07/12 11:48:17;;;;;;;;;;;31.30;99.90;;;;;;4996972;28;19956;-67
2022/07/12 11:50:44;;;;;;;;;;;32.60;99.90;;;;;;4996771;28;20278;-67
2022/07/12 11:53:16;;;;;;;;;;;34.00;99.90;;;;;;4996692;28;19940;-68
2022/07/12 11:55:43;;;;;;;;;;;34.90;99.90;;;;;;4996880;28;20397;-67
2022/07/12 11:58:10;;;;;;;;;;;35.50;99.90;;;;;;4996586;28;20458;-67
2022/07/12 12:00:37;;;;;;;;;;;36.10;99.90;;;;;;4996474;28;20353;-67
2022/07/12 12:03:05;;;;;;;;;;;36.40;99.90;;;;;;4996719;28;19968;-67
2022/07/12 12:05:32;;;;;;;;;;;36.20;99.90;;;;;;5012806;28;20304;-67
2022/07/12 12:07:59;;;;;;;;;;;36.50;99.90;;;;;;5012584;28;19929;-68
2022/07/12 12:10:26;;;;;;;;;;;37.20;99.90;;;;;;4999242;28;20335;-67
2022/07/12 12:12:53;;;;;;;;;;;37.70;99.90;;;;;;5016323;28;19925;-67
2022/07/12 12:15:21;;;;;;;;;;;38.20;99.90;;;;;;5016143;28;19925;-68
2022/07/12 12:17:52;;;;;;;;;;;38.50;99.90;;;;;;5015944;28;19925;-67
2022/07/12 12:20:21;;;;;;;;;;;38.90;99.90;;;;;;5015771;28;19968;-67
2022/07/12 12:22:49;;;;;;;;;;;37.80;99.90;;;;;;5015894;28;19967;-68
2022/07/12 12:25:16;;;;;;;;;;;36.90;99.90;;;;;;5032355;28;19932;-67
2022/07/12 12:27:47;;;;;;;;;;;36.20;99.90;;;;;;5032411;28;19925;-67
2022/07/12 12:30:14;;;;;;;;;;;35.80;99.90;;;;;;5015673;28;19929;-67
2022/07/12 12:32:48;;;;;;;;;;;36.10;99.90;;;;;;5015640;28;19925;-67
2022/07/12 12:35:15;;;;;;;;;;;36.70;99.90;;;;;;5015382;28;19929;-67
2022/07/12 12:37:49;;;;;;;;;;;37.70;99.90;;;;;;5015650;28;19925;-67
2022/07/12 12:40:18;;;;;;;;;;;38.00;99.90;;;;;;5015667;28;19929;-67
2022/07/12 12:42:45;;;;;;;;;;;38.90;99.90;;;;;;5015542;28;19925;-68
2022/07/12 12:45:17;;;;;;;;;;;39.20;99.90;;;;;;5015326;28;20347;-67
2022/07/12 12:47:57;;;;;;;;;;;39.00;99.90;;;;;;5015644;28;20028;-67
2022/07/12 12:50:40;;;;;;;;;;;39.00;99.90;;;;;;5015172;28;19925;-67
2022/07/12 12:53:09;;;;;;;;;;;38.80;99.90;;;;;;5015577;28;19925;-68
2022/07/12 12:55:36;;;;;;;;;;;39.60;99.90;;;;;;5015211;28;20384;-67
2022/07/12 12:58:03;;;;;;;;;;;40.00;99.90;;;;;;5015138;28;19929;-67
2022/07/12 13:00:30;;;;;;;;;;;39.80;99.90;;;;;;5014194;28;19995;-68
2022/07/12 13:02:59;;;;;;;;;;;39.30;99.90;;;;;;5014972;28;19964;-67
2022/07/12 13:05:26;;;;;;;;;;;38.80;99.90;;;;;;5031294;28;19925;-67
2022/07/12 13:07:52;;;;;;;;;;;38.40;99.90;;;;;;5014743;28;20404;-69
2022/07/12 13:10:20;;;;;;;;;;;38.90;99.90;;;;;;5012199;28;19957;-68
2022/07/12 13:12:47;;;;;;;;;;;38.70;99.90;;;;;;4995524;28;19932;-67
2022/07/12 13:15:14;;;;;;;;;;;37.70;99.90;;;;;;4995236;28;19949;-67
2022/07/12 13:17:41;;;;;;;;;;;36.80;99.90;;;;;;4995556;28;19925;-68
2022/07/12 13:20:08;;;;;;;;;;;37.70;99.90;;;;;;4994911;28;19979;-68
2022/07/12 13:22:35;;;;;;;;;;;38.50;99.90;;;;;;4995155;28;19930;-68
2022/07/12 13:25:02;;;;;;;;;;;38.40;99.90;;;;;;4995128;28;19929;-68
2022/07/12 13:27:30;;;;;;;;;;;38.60;99.90;;;;;;4995443;28;20404;-68
2022/07/12 13:29:57;;;;;;;;;;;38.90;99.90;;;;;;5011344;28;19926;-68
2022/07/12 13:32:24;;;;;;;;;;;39.50;99.90;;;;;;4995014;28;19925;-68
2022/07/12 13:34:51;;;;;;;;;;;39.50;99.90;;;;;;4995015;28;19932;-67
2022/07/12 13:37:18;;;;;;;;;;;39.40;99.90;;;;;;4994989;28;20390;-67
2022/07/12 13:42:29;;;;;;;;;;;39.60;99.90;;;;;;4994939;28;19925;-67
2022/07/12 13:44:57;;;;;;;;;;;39.40;99.90;;;;;;4994861;28;19973;-68
2022/07/12 13:47:25;;;;;;;;;;;38.70;99.90;;;;;;4994855;28;19980;-67
2022/07/12 13:49:51;;;;;;;;;;;38.10;99.90;;;;;;4994558;28;19926;-67
2022/07/12 13:52:18;;;;;;;;;;;37.90;99.90;;;;;;4995209;28;19925;-67
2022/07/12 13:54:45;;;;;;;;;;;37.50;99.90;;;;;;4994837;28;19980;-68
2022/07/12 13:57:12;;;;;;;;;;;37.00;99.90;;;;;;4995018;28;19968;-68
2022/07/12 13:59:39;;;;;;;;;;;37.20;99.90;;;;;;4994597;28;19925;-67
2022/07/12 14:02:07;;;;;;;;;;;36.70;99.90;;;;;;4995122;28;19926;-68
2022/07/12 14:04:34;;;;;;;;;;;36.00;99.90;;;;;;5052913;23;19924;-68
2022/07/12 14:07:01;;;;;;;;;;;36.20;99.90;;;;;;5065919;28;19983;-70
2022/07/12 14:09:28;;;;;;;;;;;35.80;99.90;;;;;;5050465;28;19925;-70
2022/07/12 14:11:54;;;;;;;;;;;35.60;99.90;;;;;;5052020;28;20027;-70
2022/07/12 14:15:14;;;;;;;;;;;35.40;99.80;;;;;;5054237;28;19932;-70
2022/07/12 14:17:14;;;;;;;;;;;35.50;99.90;;;;;;5054675;28;19925;-73
2022/07/12 14:19:40;;;;;;;;;;;35.70;99.90;;;;;;5054581;28;20055;-71
2022/07/12 14:22:07;;;;;;;;;;;36.00;99.90;;;;;;5054750;28;20380;-69
2022/07/12 14:24:34;;;;;;;;;;;36.10;99.80;;;;;;5054507;28;20396;-70
2022/07/12 14:27:01;;;;;;;;;;;36.10;99.60;;;;;;5054371;28;19924;-72
2022/07/12 14:29:27;;;;;;;;;;;36.50;99.60;;;;;;5054397;28;19925;-70
2022/07/12 14:31:55;;;;;;;;;;;36.80;99.80;;;;;;5054479;28;19925;-70
2022/07/12 14:34:23;;;;;;;;;;;37.20;99.40;;;;;;5054296;28;19999;-70